首页
METAR-TAF:

METAR-TAF

机场 :

Goldsboro / Seymour Johnson, 北卡罗来纳州, 美国

纬度: 35-20N, 经度: 077-58W, 海拔: 33米

当前天气观测

该预报发布于15分钟前的16:50 UTC
风速6节,风向
温度 24°C
湿度 94%
气压 1015 hPa
能見度: 9.7公里
多云层高于2400英尺
阴天层高于4500英尺
小雨, 轻雾

METAR: KGSB 051650Z AUTO 19006KT 6SM -RA BR BKN024 OVC045 24/23 A2998 RMK AO2 RAB35 SLP154 $

时间: 13:05 (17:05 UTC)

预报

该预报发布于5小时和5分钟前的12:00 UTC
预报有效从05日的 12点(UTC)到 06日的 18点(UTC)
风速8节,风向
能见度10公里或以上
少量云层高于1200英尺
多云层高于7000英尺
成为
从 05日的 15点(UTC)到 05日的 16点(UTC)
风速10节,风向,有时为15节阵风
能見度: 8000
散云层高于2000英尺
多云层高于3000英尺, 积雨云.
小阵雨, 附近有雷暴
短暂存在
从 05日的 16点(UTC)到 05日的 19点(UTC)
能見度: 3200
多云层高于2000英尺, 积雨云.
雷暴, 小雨
成为
从 05日的 19点(UTC)到 05日的 20点(UTC)
风速9节,风向南转西南
能见度10公里或以上
散云层高于3000英尺
成为
从 06日的 07点(UTC)到 06日的 08点(UTC)
风速3节,风向西南
能见度10公里或以上
多云层高于2000英尺
成为
从 06日的 17点(UTC)到 06日的 18点(UTC)
风速5节,风向西
能见度10公里或以上
少量云层高于4000英尺

TAF: KGSB 051200Z 0512/0618 18008KT 9999 FEW012 BKN070 QNH2997INS BECMG 0515/0516 19010G15KT 8000 -SHRA VCTS SCT020 BKN030CB QNH2996INS TEMPO 0516/0519 3200 -TSRA BKN020CB BECMG 0519/0520 20009KT 9999 NSW SCT030 QNH2989INS BECMG 0607/0608 22003KT 9999 BKN020 QNH2989INS BECMG 0617/0618 26005KT 9999 FEW040 QNH2989INS TX30/0521Z TN22/0610Z

超过4000个机场的气象观测和天气预报(METAR&TAF报告)。

可查询的气象台以黄色和红色小点在地图上表示。

将鼠标移到小点上方,可查看气象台名称。

然后点击查看天气观测和预报。

如需切换地图:点击带黑十字的绿色按钮放大地图;点击带横线的绿色按钮缩小地图;或者点击绿色箭头查看邻近地区的地图。


METAR-TAF: